Time;durP1;ratioP1;P1;durP2;ratioP2;P2;SDS_P1;SDS_P2;PMS_P1;PMS_P2;Temp;Humidity;BMP_temperature;BMP_pressure;BME280_temperature;BME280_humidity;BME280_pressure;Samples;Min_cycle;Max_cycle;Signal;HPM_P1;HPM_P2
2023/05/11 00:00:06;;;;;;;;;5.33;4.67;;;;;14.23;100.00;101505.44;5080904;27;49518;-70
2023/05/11 00:02:32;;;;;;;;;3.00;3.00;;;;;14.22;100.00;101502.84;5080748;27;45670;-69
2023/05/11 00:04:57;;;;;;;;;5.00;5.00;;;;;14.23;100.00;101499.25;5071697;27;45393;-70
2023/05/11 00:07:22;;;;;;;;;5.00;4.00;;;;;14.10;100.00;101475.91;5060316;28;45469;-70
2023/05/11 00:09:48;;;;;;;;;6.00;5.00;;;;;14.23;98.88;101494.81;5060562;28;45380;-70
2023/05/11 00:12:13;;;;;;;;;5.67;4.00;;;;;14.24;100.00;101491.19;5068790;28;45515;-69
2023/05/11 00:14:39;;;;;;;;;5.00;3.67;;;;;14.27;99.50;101482.19;5068695;28;47137;-70
2023/05/11 00:17:05;;;;;;;;;5.33;3.00;;;;;14.18;99.17;101472.88;5075380;28;46335;-70
2023/05/11 00:19:30;;;;;;;;;3.00;3.00;;;;;14.28;97.91;101491.88;5080488;28;45333;-70
2023/05/11 00:21:57;;;;;;;;;5.00;3.67;;;;;14.29;99.37;101486.50;5078720;27;45430;-69
2023/05/11 00:24:23;;;;;;;;;5.67;3.00;;;;;14.30;100.00;101484.72;5068645;28;45329;-70
2023/05/11 00:26:48;;;;;;;;;4.00;4.00;;;;;14.28;100.00;101478.59;5064922;28;46698;-70
2023/05/11 00:29:14;;;;;;;;;6.00;3.33;;;;;14.33;100.00;101487.22;5061982;28;45605;-70
2023/05/11 00:31:39;;;;;;;;;5.00;3.33;;;;;14.29;100.00;101481.19;5059682;28;45478;-70
2023/05/11 00:34:05;;;;;;;;;3.67;3.33;;;;;14.32;99.06;101481.03;5059967;28;45539;-70
2023/05/11 00:36:30;;;;;;;;;4.00;2.00;;;;;14.33;95.73;101485.41;5066427;28;46330;-70
2023/05/11 00:38:55;;;;;;;;;2.00;2.00;;;;;14.35;98.56;101482.69;5080060;28;45275;-70
2023/05/11 00:41:21;;;;;;;;;4.00;3.33;;;;;14.34;99.16;101484.47;5064379;27;45354;-70
2023/05/11 00:43:46;;;;;;;;;4.00;3.00;;;;;14.22;99.51;101455.81;5068361;28;45273;-70
2023/05/11 00:46:11;;;;;;;;;5.33;3.33;;;;;14.27;100.00;101475.06;5071974;27;45498;-70
2023/05/11 00:48:37;;;;;;;;;2.00;1.67;;;;;14.34;96.78;101480.97;5059570;28;45540;-70
2023/05/11 00:51:04;;;;;;;;;2.00;2.00;;;;;14.33;97.50;101481.88;5059500;28;45360;-70
2023/05/11 00:53:30;;;;;;;;;4.67;2.33;;;;;14.34;96.35;101475.63;5069172;28;45378;-70
2023/05/11 00:55:55;;;;;;;;;4.67;3.00;;;;;14.28;95.39;101463.50;5077111;27;45435;-70
2023/05/11 00:58:21;;;;;;;;;3.00;3.00;;;;;14.33;96.86;101471.25;5059496;28;48072;-69
2023/05/11 01:00:46;;;;;;;;;4.00;2.00;;;;;14.33;95.01;101471.25;5059553;28;45331;-70
2023/05/11 01:03:13;;;;;;;;;5.00;3.00;;;;;14.32;99.33;101472.16;5059856;28;45459;-70
2023/05/11 01:06:01;;;;;;;;;3.67;2.67;;;;;14.29;96.54;101477.66;5061681;28;47175;-70
2023/05/11 01:08:39;;;;;;;;;5.33;3.00;;;;;14.28;97.22;101471.47;5066954;27;45348;-71
2023/05/11 01:11:18;;;;;;;;;4.33;3.00;;;;;14.20;98.12;101460.34;5066876;28;45426;-70
2023/05/11 01:13:49;;;;;;;;;2.33;2.33;;;;;14.24;98.26;101463.72;5070468;27;45442;-70
2023/05/11 01:16:19;;;;;;;;;3.33;2.67;;;;;14.27;97.16;101471.53;5059357;28;45650;-70
2023/05/11 01:18:59;;;;;;;;;3.00;3.00;;;;;14.25;100.00;101465.44;5059221;28;45699;-70
2023/05/11 01:21:28;;;;;;;;;4.00;3.00;;;;;14.20;96.55;101460.34;5079112;28;45452;-71
2023/05/11 01:24:27;;;;;;;;;2.00;2.00;;;;;14.17;100.00;101465.81;5079351;28;45427;-70
2023/05/11 01:27:20;;;;;;;;;7.67;2.33;;;;;14.13;97.23;101466.09;5065874;27;45390;-70
2023/05/11 01:29:48;;;;;;;;;3.00;2.33;;;;;14.10;100.00;101472.44;5079305;27;45469;-70
2023/05/11 01:32:18;;;;;;;;;2.00;2.00;;;;;14.05;100.00;101466.47;5071881;27;45485;-71
2023/05/11 01:34:45;;;;;;;;;1.00;1.00;;;;;14.07;100.00;101468.09;5075992;27;45307;-70
2023/05/11 01:37:25;;;;;;;;;3.67;2.00;;;;;14.03;100.00;101471.88;5067765;28;45408;-70
2023/05/11 01:40:00;;;;;;;;;4.00;3.33;;;;;13.99;100.00;101457.00;5077604;27;45529;-70
2023/05/11 01:42:37;;;;;;;;;3.00;1.33;;;;;14.02;100.00;101471.94;5069726;28;45367;-71
2023/05/11 01:45:05;;;;;;;;;3.67;2.00;;;;;14.00;100.00;101465.84;5071736;28;45294;-70
2023/05/11 01:47:31;;;;;;;;;3.67;2.00;;;;;14.02;100.00;101466.63;5058804;28;45974;-70
2023/05/11 01:49:57;;;;;;;;;1.00;1.00;;;;;14.00;100.00;101465.84;5058380;28;45232;-70
2023/05/11 01:52:26;;;;;;;;;1.00;1.00;;;;;13.97;100.00;101466.84;5059227;28;45355;-70
2023/05/11 01:54:54;;;;;;;;;1.00;1.00;;;;;13.97;100.00;101476.66;5071442;28;45354;-70
2023/05/11 01:57:20;;;;;;;;;5.00;2.00;;;;;13.99;100.00;101472.09;5058585;28;45326;-70
2023/05/11 01:59:49;;;;;;;;;1.67;1.00;;;;;13.98;99.60;101475.69;5065336;28;45290;-71
2023/05/11 02:02:16;;;;;;;;;1.33;1.00;;;;;13.92;100.00;101465.38;5078932;27;45298;-71
2023/05/11 02:04:43;;;;;;;;;2.00;2.00;;;;;13.95;100.00;101475.84;5070794;27;45569;-70
2023/05/11 02:07:11;;;;;;;;;3.00;2.00;;;;;13.94;100.00;101480.31;5073648;28;45522;-70
2023/05/11 02:09:39;;;;;;;;;3.00;1.67;;;;;13.87;100.00;101470.91;5078771;27;45609;-71
2023/05/11 02:12:06;;;;;;;;;3.67;3.00;;;;;13.85;100.00;101477.25;5062501;28;45295;-70
2023/05/11 02:14:35;;;;;;;;;2.00;2.00;;;;;13.84;100.00;101478.19;5067378;28;45458;-70
2023/05/11 02:17:02;;;;;;;;;3.00;1.00;;;;;13.77;100.00;101474.13;5062649;27;47448;-70
2023/05/11 02:19:29;;;;;;;;;3.33;2.00;;;;;13.77;100.00;101476.78;5058410;28;45411;-71
2023/05/11 02:21:57;;;;;;;;;3.00;3.00;;;;;13.82;100.00;101480.06;5061414;28;45371;-70
2023/05/11 02:24:24;;;;;;;;;4.67;3.00;;;;;13.84;100.00;101480.84;5068589;28;45291;-70
2023/05/11 02:26:49;;;;;;;;;4.00;2.00;;;;;13.81;100.00;101476.53;5058068;28;45374;-70
2023/05/11 02:29:15;;;;;;;;;2.33;2.00;;;;;13.82;100.00;101486.25;5069113;28;45408;-70
2023/05/11 02:31:44;;;;;;;;;2.00;2.00;;;;;13.83;100.00;101484.44;5068907;27;45291;-71
2023/05/11 02:34:19;;;;;;;;;2.00;2.00;;;;;13.83;100.00;101482.66;5058651;28;45447;-70
2023/05/11 02:36:47;;;;;;;;;1.00;1.00;;;;;13.85;100.00;101487.88;5064972;28;46913;-70
2023/05/11 02:39:20;;;;;;;;;2.00;2.00;;;;;13.84;100.00;101487.00;5067375;28;45339;-70
2023/05/11 02:41:48;;;;;;;;;2.33;2.33;;;;;13.83;100.00;101487.09;5058290;28;45526;-70
2023/05/11 02:44:16;;;;;;;;;2.00;2.00;;;;;13.81;100.00;101486.31;5058385;28;45570;-70
2023/05/11 02:46:46;;;;;;;;;2.33;2.33;;;;;13.82;100.00;101496.88;5089991;27;47387;-70
2023/05/11 02:49:14;;;;;;;;;5.00;2.00;;;;;13.83;100.00;101487.09;5058027;28;45366;-69
2023/05/11 02:51:43;;;;;;;;;1.33;1.33;;;;;13.76;100.00;101481.22;5057906;28;45303;-70
2023/05/11 02:54:11;;;;;;;;;1.00;1.00;;;;;13.80;100.00;101481.94;5058007;28;45421;-70
2023/05/11 02:56:37;;;;;;;;;1.00;1.00;;;;;13.79;100.00;101485.53;5061011;28;45382;-71
2023/05/11 02:59:03;;;;;;;;;0.00;0.00;;;;;13.75;100.00;101484.81;5075000;28;45417;-70
2023/05/11 03:01:29;;;;;;;;;1.33;1.00;;;;;13.56;100.00;101465.41;5065209;28;45445;-71
2023/05/11 03:03:55;;;;;;;;;1.00;1.00;;;;;13.68;100.00;101482.56;5066432;28;45527;-70
2023/05/11 03:06:20;;;;;;;;;1.67;1.67;;;;;13.65;100.00;101478.22;5060996;28;46127;-71
2023/05/11 03:08:46;;;;;;;;;2.00;2.00;;;;;13.58;100.00;101472.34;5061356;28;45339;-70
2023/05/11 03:11:13;;;;;;;;;2.00;1.00;;;;;13.57;100.00;101486.59;5061317;28;45347;-70
2023/05/11 03:13:43;;;;;;;;;1.00;1.00;;;;;13.54;100.00;101481.44;5063385;28;45492;-70
2023/05/11 03:16:11;;;;;;;;;2.33;1.00;;;;;13.45;100.00;101468.56;5072068;27;45405;-70
2023/05/11 03:18:38;;;;;;;;;3.00;1.67;;;;;13.51;100.00;101483.38;5062882;28;45335;-70
2023/05/11 03:21:04;;;;;;;;;1.00;1.00;;;;;13.47;100.00;101471.16;5069520;28;45465;-70
2023/05/11 03:23:30;;;;;;;;;2.33;1.00;;;;;13.47;100.00;101479.13;5076922;28;45313;-70
2023/05/11 03:25:57;;;;;;;;;1.00;1.00;;;;;13.47;100.00;101474.69;5071280;28;46384;-69
2023/05/11 03:28:24;;;;;;;;;2.00;2.00;;;;;13.41;100.00;101474.13;5080119;28;45392;-70
2023/05/11 03:30:51;;;;;;;;;2.00;2.00;;;;;13.42;100.00;101479.34;5075488;27;45332;-70
2023/05/11 03:33:16;;;;;;;;;1.67;1.67;;;;;13.41;100.00;101476.78;5063733;28;45303;-70
2023/05/11 03:35:44;;;;;;;;;4.00;2.00;;;;;13.33;100.00;101466.50;5069685;28;46313;-70
2023/05/11 03:38:11;;;;;;;;;1.00;1.00;;;;;13.24;100.00;101450.16;5075009;28;45356;-70
2023/05/11 03:40:40;;;;;;;;;1.00;1.00;;;;;13.39;100.00;101470.66;5060890;28;45355;-70
2023/05/11 03:43:09;;;;;;;;;3.00;2.00;;;;;13.30;100.00;101464.00;5060805;28;45601;-70
2023/05/11 03:45:36;;;;;;;;;1.00;1.00;;;;;13.37;100.00;101473.41;5063930;28;45474;-70
2023/05/11 03:48:04;;;;;;;;;1.67;1.67;;;;;13.37;100.00;101469.88;5074012;28;45382;-70
2023/05/11 03:50:30;;;;;;;;;2.00;2.00;;;;;13.38;100.00;101474.28;5060638;28;45354;-71
2023/05/11 03:52:56;;;;;;;;;2.00;2.00;;;;;13.31;100.00;101462.22;5060083;28;45367;-70
2023/05/11 03:55:22;;;;;;;;;2.33;1.67;;;;;13.33;100.00;101469.16;5060547;28;45487;-70
2023/05/11 03:57:47;;;;;;;;;3.00;2.00;;;;;13.32;100.00;101475.41;5076063;28;51243;-70
2023/05/11 04:00:13;;;;;;;;;2.00;2.00;;;;;13.31;100.00;101478.16;5059566;28;45467;-70
2023/05/11 04:02:38;;;;;;;;;4.00;2.67;;;;;13.32;100.00;101474.53;5078396;28;45442;-70
2023/05/11 04:05:09;;;;;;;;;1.00;1.00;;;;;13.30;100.00;101469.31;5080382;27;46490;-70
2023/05/11 04:07:36;;;;;;;;;1.33;1.33;;;;;13.24;100.00;101460.78;5061475;27;45292;-70
2023/05/11 04:10:02;;;;;;;;;4.67;1.67;;;;;13.26;100.00;101469.53;5068799;28;45438;-70
2023/05/11 04:12:27;;;;;;;;;5.00;3.00;;;;;13.29;100.00;101474.69;5061612;28;45490;-70
2023/05/11 04:14:53;;;;;;;;;3.00;2.00;;;;;13.24;100.00;101461.66;5060084;28;45478;-70
2023/05/11 04:17:18;;;;;;;;;2.00;2.00;;;;;13.30;100.00;101471.09;5060462;28;45455;-70
2023/05/11 04:19:43;;;;;;;;;4.67;2.00;;;;;13.23;100.00;101464.34;5059908;28;48088;-71
2023/05/11 04:22:10;;;;;;;;;5.00;3.00;;;;;13.25;100.00;101455.38;5060520;28;48435;-70
2023/05/11 04:24:36;;;;;;;;;1.67;1.00;;;;;13.27;100.00;101469.47;5060442;28;46194;-70
2023/05/11 04:27:01;;;;;;;;;3.00;2.00;;;;;13.28;100.00;101463.22;5063055;28;45342;-69
2023/05/11 04:29:27;;;;;;;;;5.33;1.33;;;;;13.16;100.00;101442.53;5071274;28;47616;-70
2023/05/11 04:31:52;;;;;;;;;1.00;1.00;;;;;13.26;100.00;101459.75;5069253;27;45331;-70
2023/05/11 04:34:17;;;;;;;;;0.00;0.00;;;;;13.23;100.00;101453.72;5071161;28;45466;-70
2023/05/11 04:36:46;;;;;;;;;2.00;1.00;;;;;13.29;100.00;101461.41;5064498;28;45498;-70
2023/05/11 04:39:11;;;;;;;;;1.67;1.00;;;;;13.20;100.00;101453.88;5080626;28;45280;-70
2023/05/11 04:41:36;;;;;;;;;2.00;2.00;;;;;13.26;100.00;101456.25;5075072;28;57001;-70
2023/05/11 04:44:02;;;;;;;;;2.67;1.00;;;;;13.29;100.00;101461.41;5069887;28;47489;-70
2023/05/11 04:46:27;;;;;;;;;2.00;2.00;;;;;13.25;100.00;101457.19;5062344;27;45209;-71
2023/05/11 04:48:52;;;;;;;;;3.00;2.00;;;;;13.25;100.00;101465.16;5071078;28;45394;-70
2023/05/11 04:51:18;;;;;;;;;2.00;2.00;;;;;13.30;100.00;101471.97;5075670;27;50964;-71
2023/05/11 04:53:43;;;;;;;;;2.00;1.67;;;;;13.26;100.00;101475.69;5059791;28;47139;-71
2023/05/11 04:56:08;;;;;;;;;2.00;0.00;;;;;13.28;100.00;101473.00;5063597;28;45269;-70
2023/05/11 04:58:34;;;;;;;;;6.00;2.67;;;;;13.30;100.00;101466.66;5079862;28;50220;-70
2023/05/11 05:00:59;;;;;;;;;2.33;1.67;;;;;13.30;100.00;101473.75;5073908;28;45427;-70
2023/05/11 05:03:24;;;;;;;;;2.00;2.00;;;;;13.29;100.00;101478.22;5067527;28;47225;-71
2023/05/11 05:05:50;;;;;;;;;7.00;2.67;;;;;13.30;100.00;101481.72;5059005;28;45439;-70
2023/05/11 05:08:17;;;;;;;;;4.00;4.00;;;;;13.21;100.00;101460.94;5070633;28;45472;-71
2023/05/11 05:10:42;;;;;;;;;4.00;2.00;;;;;13.25;100.00;101473.97;5079708;27;45566;-70
2023/05/11 05:13:08;;;;;;;;;2.33;2.00;;;;;13.28;100.00;101483.63;5075472;27;45419;-71
2023/05/11 05:15:33;;;;;;;;;3.00;3.00;;;;;13.26;100.00;101481.00;5059304;28;45357;-70
2023/05/11 05:17:59;;;;;;;;;5.00;2.00;;;;;13.28;100.00;101491.59;5068400;28;45622;-70
2023/05/11 05:20:24;;;;;;;;;3.67;3.00;;;;;13.28;100.00;101489.78;5061704;28;45367;-71
2023/05/11 05:22:49;;;;;;;;;5.00;2.00;;;;;13.10;100.00;101466.72;5068748;28;45890;-70
2023/05/11 05:25:15;;;;;;;;;2.67;2.00;;;;;13.24;100.00;101503.28;5067776;28;45345;-70
2023/05/11 05:27:41;;;;;;;;;5.67;3.00;;;;;13.28;100.00;101505.72;5061902;28;45398;-70
2023/05/11 05:30:06;;;;;;;;;3.33;2.00;;;;;13.29;100.00;101495.94;5060009;28;45202;-70
2023/05/11 05:32:32;;;;;;;;;3.00;3.00;;;;;13.31;100.00;101496.75;5073524;28;45436;-70
2023/05/11 05:34:57;;;;;;;;;3.00;3.00;;;;;13.33;100.00;101501.03;5068523;28;45401;-70
2023/05/11 05:37:22;;;;;;;;;5.00;2.67;;;;;13.33;100.00;101509.00;5064465;28;49021;-72
2023/05/11 05:39:47;;;;;;;;;3.00;2.00;;;;;13.30;100.00;101497.66;5061510;28;46398;-71
2023/05/11 05:42:13;;;;;;;;;3.67;2.00;;;;;13.36;100.00;101505.34;5060982;28;46097;-72
2023/05/11 05:44:38;;;;;;;;;4.67;3.00;;;;;13.38;100.00;101506.16;5069599;28;45295;-71
2023/05/11 05:47:04;;;;;;;;;4.00;4.00;;;;;13.42;100.00;101510.38;5068141;27;45555;-71
2023/05/11 05:49:29;;;;;;;;;5.33;2.33;;;;;13.29;100.00;101493.28;5063410;27;45450;-71
2023/05/11 05:51:54;;;;;;;;;2.67;2.33;;;;;13.43;100.00;101507.66;5066439;28;47287;-72
2023/05/11 05:54:20;;;;;;;;;3.67;2.67;;;;;13.45;100.00;101507.56;5059197;28;45368;-71
2023/05/11 05:56:46;;;;;;;;;2.00;2.00;;;;;13.43;100.00;101518.28;5061366;28;45420;-71
2023/05/11 05:59:13;;;;;;;;;3.67;2.00;;;;;13.40;100.00;101514.91;5059064;28;45507;-71
2023/05/11 06:01:44;;;;;;;;;3.33;3.33;;;;;13.42;100.00;101516.53;5070703;27;46164;-72
2023/05/11 06:04:10;;;;;;;;;1.67;1.67;;;;;13.42;100.00;101519.19;5064743;28;45439;-72
2023/05/11 06:06:35;;;;;;;;;4.33;4.00;;;;;13.45;100.00;101521.72;5075335;28;45495;-71
2023/05/11 06:09:00;;;;;;;;;2.67;2.67;;;;;13.48;100.00;101515.41;5064293;28;51335;-72
2023/05/11 06:11:26;;;;;;;;;5.00;4.67;;;;;13.42;100.00;101497.06;5064793;28;46071;-72
2023/05/11 06:13:51;;;;;;;;;3.67;3.00;;;;;13.56;100.00;101518.56;5074173;28;45358;-71
2023/05/11 06:16:16;;;;;;;;;5.00;3.33;;;;;13.59;100.00;101518.41;5065227;28;45350;-71
2023/05/11 06:18:42;;;;;;;;;4.67;4.00;;;;;13.64;100.00;101524.38;5058127;28;46597;-72
2023/05/11 06:21:07;;;;;;;;;5.33;4.00;;;;;13.62;100.00;101514.72;5070247;28;45864;-72
2023/05/11 06:23:33;;;;;;;;;5.33;5.00;;;;;13.67;100.00;101526.88;5061458;28;45475;-72
2023/05/11 06:25:58;;;;;;;;;4.33;3.33;;;;;13.69;100.00;101526.78;5058257;28;45274;-72
2023/05/11 06:28:23;;;;;;;;;3.67;3.67;;;;;13.72;100.00;101527.50;5066524;28;45476;-71
2023/05/11 06:30:49;;;;;;;;;4.33;4.00;;;;;13.79;100.00;101536.91;5063654;28;45896;-72
2023/05/11 06:33:14;;;;;;;;;4.00;4.00;;;;;13.78;100.00;101536.97;5068652;28;45270;-71
2023/05/11 06:35:39;;;;;;;;;3.67;3.00;;;;;13.80;100.00;101537.78;5063674;28;45602;-71
2023/05/11 06:38:05;;;;;;;;;2.00;2.00;;;;;13.84;100.00;101536.69;5066405;28;45339;-71
2023/05/11 06:40:30;;;;;;;;;3.00;3.00;;;;;13.88;100.00;101532.94;5079021;27;46116;-71
2023/05/11 06:42:56;;;;;;;;;5.33;4.00;;;;;13.88;100.00;101541.78;5066053;28;55922;-72
2023/05/11 06:45:21;;;;;;;;;4.33;3.33;;;;;13.86;100.00;101537.47;5061744;28;47122;-72
2023/05/11 06:47:46;;;;;;;;;4.00;4.00;;;;;13.87;100.00;101548.00;5059951;28;45563;-72
2023/05/11 06:50:12;;;;;;;;;5.00;3.00;;;;;13.84;100.00;101542.00;5061591;28;45416;-72
2023/05/11 06:52:37;;;;;;;;;7.00;5.33;;;;;13.86;100.00;101538.34;5059301;28;45508;-72
2023/05/11 06:55:03;;;;;;;;;6.33;6.00;;;;;13.96;100.00;101546.72;5061137;28;45320;-73
2023/05/11 06:57:28;;;;;;;;;5.00;4.00;;;;;14.05;100.00;101541.81;5061075;28;45575;-73
2023/05/11 06:59:54;;;;;;;;;4.33;4.33;;;;;14.16;100.00;101537.75;5058760;28;45686;-73
2023/05/11 07:02:19;;;;;;;;;6.00;4.33;;;;;14.14;100.00;101529.84;5060636;28;50845;-73
2023/05/11 07:04:44;;;;;;;;;5.00;4.00;;;;;14.23;100.00;101545.34;5058422;28;46862;-72
2023/05/11 07:07:11;;;;;;;;;4.00;4.00;;;;;14.20;99.71;101536.66;5061646;28;47136;-73
2023/05/11 07:09:36;;;;;;;;;7.00;4.67;;;;;14.27;100.00;101541.56;5060141;28;46297;-72
2023/05/11 07:12:02;;;;;;;;;4.67;4.33;;;;;14.32;99.25;101539.56;5060921;28;45352;-72
2023/05/11 07:14:27;;;;;;;;;6.00;6.00;;;;;14.34;100.00;101542.16;5075030;27;45337;-73
2023/05/11 07:16:52;;;;;;;;;5.33;4.00;;;;;14.35;100.00;101533.25;5060964;28;52165;-72
2023/05/11 07:19:18;;;;;;;;;5.00;5.00;;;;;14.35;97.59;101542.09;5061173;28;45505;-73
2023/05/11 07:21:43;;;;;;;;;7.00;4.00;;;;;14.33;99.90;101540.44;5063199;28;46159;-73
2023/05/11 07:24:08;;;;;;;;;4.00;4.00;;;;;14.31;100.00;101544.94;5074846;28;45371;-70
2023/05/11 07:26:34;;;;;;;;;6.00;5.00;;;;;14.33;99.06;101541.28;5061003;28;45239;-73
2023/05/11 07:28:59;;;;;;;;;5.00;5.00;;;;;14.29;99.52;101533.53;5062708;28;46282;-72
2023/05/11 07:31:25;;;;;;;;;6.00;4.33;;;;;14.31;98.84;101532.50;5079973;28;45355;-72
2023/05/11 07:33:50;;;;;;;;;5.67;4.00;;;;;14.35;99.27;101534.13;5079847;27;45255;-73
2023/05/11 07:36:16;;;;;;;;;6.00;6.00;;;;;14.40;99.13;101539.19;5064736;28;45483;-73
2023/05/11 07:38:41;;;;;;;;;4.00;4.00;;;;;14.49;98.35;101544.06;5060619;28;46094;-73
2023/05/11 07:41:06;;;;;;;;;9.33;6.33;;;;;14.42;99.39;101527.53;5060211;28;45594;-72
2023/05/11 07:43:32;;;;;;;;;10.33;8.00;;;;;14.48;100.00;101539.66;5060576;28;45488;-73
2023/05/11 07:45:57;;;;;;;;;6.00;4.33;;;;;14.62;98.56;101541.63;5084867;27;45999;-72
2023/05/11 07:48:22;;;;;;;;;4.00;4.00;;;;;14.69;96.32;101549.19;5061896;28;51512;-73
2023/05/11 07:50:50;;;;;;;;;6.00;6.00;;;;;14.76;96.25;101542.59;5071938;27;45384;-73
2023/05/11 07:53:16;;;;;;;;;8.00;7.00;;;;;14.88;96.52;101543.78;5059442;28;45322;-73
2023/05/11 07:55:41;;;;;;;;;6.00;6.00;;;;;14.99;98.09;101544.91;5068856;28;45327;-72
2023/05/11 07:58:06;;;;;;;;;6.33;4.67;;;;;14.99;92.48;101541.38;5066938;27;54002;-73
2023/05/11 08:00:32;;;;;;;;;4.00;4.00;;;;;14.99;93.87;101536.91;5072947;28;45412;-72
2023/05/11 08:02:58;;;;;;;;;5.33;5.00;;;;;15.05;93.57;101539.25;5060416;28;45442;-72
2023/05/11 08:05:23;;;;;;;;;6.00;6.00;;;;;15.11;94.19;101543.41;5060757;28;45367;-72
2023/05/11 08:07:48;;;;;;;;;6.00;5.00;;;;;15.17;93.99;101545.72;5060471;28;45499;-72
2023/05/11 08:10:14;;;;;;;;;5.33;5.33;;;;;15.28;90.97;101543.31;5060533;28;45298;-72
2023/05/11 08:12:39;;;;;;;;;9.33;7.67;;;;;15.22;90.55;101537.47;5063993;27;45271;-73
2023/05/11 08:15:05;;;;;;;;;6.00;6.00;;;;;15.31;92.92;101542.31;5074075;28;45447;-73
2023/05/11 08:17:30;;;;;;;;;7.00;4.33;;;;;15.33;91.67;101543.09;5073996;28;46277;-72
2023/05/11 08:19:56;;;;;;;;;3.33;3.00;;;;;15.26;92.57;101528.38;5078707;27;45306;-72
2023/05/11 08:22:21;;;;;;;;;4.33;4.33;;;;;15.41;91.48;101532.88;5080417;28;45320;-72
2023/05/11 08:24:49;;;;;;;;;6.33;4.00;;;;;15.54;88.83;101544.59;5067237;28;45302;-72
2023/05/11 08:27:15;;;;;;;;;8.00;7.00;;;;;15.57;88.24;101531.94;5065972;27;45509;-72
2023/05/11 08:29:40;;;;;;;;;6.00;4.67;;;;;15.65;88.65;101539.50;5059883;28;45350;-72
2023/05/11 08:32:05;;;;;;;;;7.33;5.00;;;;;15.68;87.81;101543.81;5060352;28;45406;-73
2023/05/11 08:34:31;;;;;;;;;6.00;6.00;;;;;15.66;88.36;101533.25;5059500;28;45518;-72
2023/05/11 08:36:57;;;;;;;;;6.67;6.67;;;;;15.75;88.53;101537.19;5074004;28;45928;-72
2023/05/11 08:39:23;;;;;;;;;7.33;6.33;;;;;15.81;86.17;101534.16;5080216;27;45391;-73
2023/05/11 08:41:50;;;;;;;;;7.00;6.00;;;;;15.89;85.51;101540.78;5079003;27;45377;-72
2023/05/11 08:44:17;;;;;;;;;5.67;4.33;;;;;15.95;83.68;101542.25;5067415;28;45481;-73
2023/05/11 08:46:45;;;;;;;;;5.67;4.33;;;;;16.02;87.12;101546.28;5066246;27;46090;-73
2023/05/11 08:49:12;;;;;;;;;10.00;8.00;;;;;16.06;85.99;101543.34;5071128;27;45416;-73
2023/05/11 08:51:37;;;;;;;;;7.00;7.00;;;;;16.03;84.16;101540.84;5061206;28;45363;-73
2023/05/11 08:54:05;;;;;;;;;8.00;8.00;;;;;16.14;84.75;101529.53;5071339;27;45453;-72
2023/05/11 08:56:33;;;;;;;;;8.00;7.67;;;;;16.27;87.98;101537.69;5063530;28;45520;-73
2023/05/11 08:58:59;;;;;;;;;6.00;6.00;;;;;16.36;83.35;101539.84;5070846;27;45382;-70
2023/05/11 09:01:27;;;;;;;;;7.67;7.00;;;;;16.41;83.48;101530.59;5059599;28;45342;-71
2023/05/11 09:03:53;;;;;;;;;10.33;5.67;;;;;16.51;79.49;101537.09;5077463;28;45609;-70
2023/05/11 09:06:19;;;;;;;;;8.33;5.33;;;;;16.43;80.83;101531.34;5062735;28;46315;-73
2023/05/11 09:08:45;;;;;;;;;6.33;6.00;;;;;16.45;80.85;101533.94;5059357;28;45428;-71
2023/05/11 09:11:10;;;;;;;;;8.00;6.67;;;;;16.54;80.45;101536.06;5070874;28;45300;-73
2023/05/11 09:13:36;;;;;;;;;8.00;7.00;;;;;16.59;81.82;101526.84;5067508;27;45449;-73
2023/05/11 09:16:02;;;;;;;;;11.33;10.00;;;;;16.71;82.15;101540.41;5078227;28;45408;-72
2023/05/11 09:18:27;;;;;;;;;9.00;7.33;;;;;16.71;81.58;101522.56;5059799;28;45280;-72
2023/05/11 09:20:53;;;;;;;;;7.00;6.33;;;;;16.84;79.42;101528.03;5059116;28;45276;-73
2023/05/11 09:23:25;;;;;;;;;8.67;6.00;;;;;16.83;79.70;101515.59;5059478;28;45282;-73
2023/05/11 09:25:50;;;;;;;;;9.00;9.00;;;;;17.02;80.83;101534.88;5058954;28;45533;-73
2023/05/11 09:28:20;;;;;;;;;7.33;6.00;;;;;17.04;79.56;101523.16;5068403;28;45316;-73
2023/05/11 09:30:45;;;;;;;;;5.33;4.00;;;;;17.11;78.95;101535.16;5076589;27;45353;-73
2023/05/11 09:33:11;;;;;;;;;5.00;5.00;;;;;17.04;77.87;101525.84;5059608;28;45355;-73
2023/05/11 09:35:36;;;;;;;;;8.67;6.00;;;;;17.06;76.43;101518.56;5064791;28;45421;-74
2023/05/11 09:38:11;;;;;;;;;6.00;4.00;;;;;16.93;75.98;101525.63;5059243;28;45339;-73
2023/05/11 09:40:41;;;;;;;;;7.33;6.00;;;;;16.89;79.83;101529.44;5061174;28;45411;-72
2023/05/11 09:43:22;;;;;;;;;5.33;4.33;;;;;16.92;77.26;101539.06;5074750;27;45435;-72
2023/05/11 09:45:50;;;;;;;;;7.00;6.33;;;;;16.76;75.85;101511.59;5065696;28;46141;-72
2023/05/11 09:48:15;;;;;;;;;12.00;9.00;;;;;16.92;78.07;101531.94;5059072;28;45224;-72
2023/05/11 09:50:41;;;;;;;;;4.33;4.33;;;;;16.98;76.25;101536.06;5063898;28;45740;-73
2023/05/11 09:53:07;;;;;;;;;5.00;5.00;;;;;17.06;77.65;101531.94;5069598;28;45436;-73
2023/05/11 09:55:32;;;;;;;;;5.67;5.00;;;;;17.09;76.57;101528.22;5071610;28;46043;-73
2023/05/11 09:57:58;;;;;;;;;8.33;5.33;;;;;17.11;72.70;101527.16;5072831;28;45279;-72
2023/05/11 10:00:24;;;;;;;;;5.00;5.00;;;;;17.21;79.74;101531.94;5064676;28;45394;-72
2023/05/11 10:03:03;;;;;;;;;7.67;5.33;;;;;17.25;75.32;101526.28;5078605;28;45283;-72
2023/05/11 10:05:30;;;;;;;;;8.00;6.67;;;;;17.28;72.93;101526.09;5066384;28;46263;-73
2023/05/11 10:07:58;;;;;;;;;6.00;4.00;;;;;17.33;77.69;101521.31;5064937;27;45367;-73
2023/05/11 10:10:27;;;;;;;;;6.67;4.67;;;;;17.36;78.14;101497.06;5057255;28;45415;-73
2023/05/11 10:12:53;;;;;;;;;8.33;4.67;;;;;17.48;75.87;101514.97;5074066;27;45464;-73
2023/05/11 10:15:20;;;;;;;;;6.33;5.00;;;;;17.60;75.01;101516.06;5078831;28;46368;-73
2023/05/11 10:17:46;;;;;;;;;6.67;5.00;;;;;17.72;72.21;101512.56;5078622;27;45478;-72
2023/05/11 10:20:11;;;;;;;;;3.00;3.00;;;;;17.78;73.13;101508.63;5069650;27;45290;-72
2023/05/11 10:22:37;;;;;;;;;3.00;3.00;;;;;17.83;73.44;101507.38;5060342;28;45297;-72
2023/05/11 10:25:05;;;;;;;;;7.00;5.67;;;;;17.93;72.04;101505.78;5078564;27;45485;-72
2023/05/11 10:27:31;;;;;;;;;6.33;5.00;;;;;17.93;71.45;101497.75;5062625;27;45429;-71
2023/05/11 10:29:58;;;;;;;;;5.00;5.00;;;;;17.98;70.22;101497.44;5077413;28;45368;-72
2023/05/11 10:32:24;;;;;;;;;4.67;3.00;;;;;17.99;70.22;101500.03;5062269;28;45524;-72
2023/05/11 10:34:50;;;;;;;;;5.33;5.00;;;;;18.01;69.51;101494.56;5060471;28;46386;-72
2023/05/11 10:37:16;;;;;;;;;7.00;4.00;;;;;18.11;70.18;101506.38;5063002;27;45521;-72
2023/05/11 10:39:43;;;;;;;;;6.67;3.33;;;;;18.14;72.13;101508.84;5071603;28;46243;-73
2023/05/11 10:42:21;;;;;;;;;4.33;4.33;;;;;18.07;69.56;101497.69;5061984;28;45303;-72
2023/05/11 10:44:59;;;;;;;;;5.33;3.00;;;;;17.91;70.33;101497.00;5064837;28;45477;-72
2023/05/11 10:47:45;;;;;;;;;5.00;4.00;;;;;17.88;69.23;101499.88;5064940;27;45452;-73
2023/05/11 10:50:46;;;;;;;;;4.00;4.00;;;;;17.82;71.38;101497.63;5078012;27;45323;-72
2023/05/11 10:53:30;;;;;;;;;3.67;3.67;;;;;17.76;68.85;101500.72;5073280;28;45466;-72
2023/05/11 10:56:13;;;;;;;;;5.33;4.67;;;;;17.64;70.66;101488.13;5077929;28;45397;-73
2023/05/11 10:59:00;;;;;;;;;5.00;4.00;;;;;17.63;71.60;101502.47;5076998;28;45468;-73
2023/05/11 11:01:39;;;;;;;;;6.33;4.67;;;;;17.59;71.11;101495.59;5076826;27;45453;-71
2023/05/11 11:04:06;;;;;;;;;5.33;3.00;;;;;17.53;69.82;101498.66;5058480;28;45302;-72
2023/05/11 11:06:33;;;;;;;;;7.00;6.00;;;;;17.39;69.17;101490.66;5077546;28;45744;-72
2023/05/11 11:09:04;;;;;;;;;6.67;4.00;;;;;17.29;69.85;101495.72;5067678;27;45229;-73
2023/05/11 11:11:35;;;;;;;;;5.67;3.67;;;;;17.17;69.86;101500.06;5076113;28;45386;-72
2023/05/11 11:14:04;;;;;;;;;5.33;4.00;;;;;17.00;72.72;101486.88;5073455;27;45461;-73
2023/05/11 11:16:30;;;;;;;;;4.00;3.00;;;;;16.94;72.48;101491.75;5078025;28;45341;-72
2023/05/11 11:19:29;;;;;;;;;5.33;4.00;;;;;16.94;73.53;101497.97;5077321;27;45328;-72
2023/05/11 11:21:56;;;;;;;;;4.00;4.00;;;;;16.81;69.30;101482.78;5070824;28;45703;-73